Terminal Aerodrome Forecast
Issued by NWS

Home | Current Version | Previous Version | Text Only | Print | Product List | Glossary On
Versions: 1 2 3 4 5 6 7 8 9 10 11 12 13 14 15 16 17 18 19 20
000
FTUS46 KMTR 202300 RRA
TAFSTS
TAF
KSTS 202345Z 2100/2124 17004KT 4SM BR SCT007 BKN030 OVC040
      TEMPO 2100/2104 2SM -RA BR BKN007 OVC030
     FM210400 17003KT 4SM BR SCT004 BKN009 OVC011
      TEMPO 2104/2108 1SM -RA BR BKN004 OVC007
     FM210800 VRB03KT 4SM BR OVC007
      TEMPO 2109/2113 1/2SM FG OVC001
     FM211700 VRB03KT 5SM BR SCT006 BKN015=

USA.gov is the U.S. government's official web portal to all federal, state and local government web resources and services.